Time;durP1;ratioP1;P1;durP2;ratioP2;P2;SDS_P1;SDS_P2;PMS_P1;PMS_P2;Temp;Humidity;BMP_temperature;BMP_pressure;BME280_temperature;BME280_humidity;BME280_pressure;Samples;Min_cycle;Max_cycle;Signal;HPM_P1;HPM_P2
2022/03/11 00:01:48;;;;;;;33.88;15.90;;;;;;;1.70;61.22;93197.81;4977184;28;20049;-89
2022/03/11 00:08:03;;;;;;;35.50;14.68;;;;;;;1.79;61.49;93212.78;4996967;28;20406;-90
2022/03/11 00:10:47;;;;;;;;;;;;;;;;;;;;;
2022/03/11 00:13:45;;;;;;;36.03;14.43;;;;;;;1.86;62.24;93241.91;5032900;28;20045;-89
2022/03/11 00:16:31;;;;;;;31.33;13.77;;;;;;;1.61;62.90;93205.03;5003839;28;20465;-90
2022/03/11 00:19:13;;;;;;;29.95;13.68;;;;;;;1.69;62.16;93222.00;5019095;28;20112;-90
2022/03/11 00:22:02;;;;;;;29.15;12.88;;;;;;;1.40;61.54;93183.78;4989519;28;20045;-90
2022/03/11 00:24:47;;;;;;;37.20;14.43;;;;;;;1.67;61.87;93233.34;5016982;28;20044;-89
2022/03/11 00:27:39;;;;;;;28.30;13.18;;;;;;;1.36;61.87;93198.09;4989174;28;20037;-91
2022/03/11 00:30:53;;;;;;;32.70;13.73;;;;;;;1.43;62.01;93210.94;4989854;28;20041;-90
2022/03/11 00:33:37;;;;;;;30.30;13.20;;;;;;;1.25;62.23;93184.09;5013318;28;20045;-89
2022/03/11 00:36:31;;;;;;;;;;;;;;;;;;;;;
2022/03/11 00:42:18;;;;;;;;;;;;;;;;;;;;;
2022/03/11 00:45:17;;;;;;;;;;;;;;;;;;;;;
2022/03/11 00:52:01;;;;;;;28.17;13.45;;;;;;;1.28;61.12;93208.66;5010108;28;20046;-91
2022/03/11 00:54:52;;;;;;;;;;;;;;;;;;;;;
2022/03/11 00:57:41;;;;;;;30.45;12.32;;;;;;;1.20;61.31;93201.22;5001157;28;20395;-91
2022/03/11 01:01:01;;;;;;;29.50;13.30;;;;;;;1.22;62.01;93212.91;5027574;28;20045;-90
2022/03/11 01:06:59;;;;;;;;;;;;;;;;;;;;;
2022/03/11 01:09:30;;;;;;;31.80;14.45;;;;;;;1.11;61.93;93207.66;5017210;28;20061;-92
2022/03/11 01:12:48;;;;;;;32.70;13.90;;;;;;;1.13;61.81;93206.44;5018583;28;20045;-94
2022/03/11 01:15:59;;;;;;;33.08;13.48;;;;;;;1.58;61.67;93275.13;4997126;28;20369;-92
2022/03/11 01:18:53;;;;;;;30.05;13.10;;;;;;;1.17;61.86;93207.59;5021915;28;20072;-91
2022/03/11 01:21:58;;;;;;;33.22;13.40;;;;;;;1.40;61.97;93240.53;5007309;28;20057;-92
2022/03/11 01:24:41;;;;;;;29.48;12.82;;;;;;;1.18;61.52;93205.78;5000759;28;20045;-90
2022/03/11 01:27:41;;;;;;;;;;;;;;;;;;;;;
2022/03/11 01:30:33;;;;;;;29.95;13.48;;;;;;;1.43;61.87;93244.47;5033167;28;20493;-91
2022/03/11 01:33:22;;;;;;;36.53;13.77;;;;;;;1.37;61.96;93227.25;4999714;28;20050;-90
2022/03/11 01:36:08;;;;;;;29.40;13.63;;;;;;;1.36;61.86;93229.06;5019318;28;20034;-91
2022/03/11 01:39:08;;;;;;;31.25;13.95;;;;;;;1.27;62.11;93209.69;4984287;28;20037;-91
2022/03/11 01:42:02;;;;;;;;;;;;;;;;;;;;;
2022/03/11 01:44:52;;;;;;;31.83;13.27;;;;;;;1.43;61.89;93236.75;5032154;28;20047;-91
2022/03/11 01:47:22;;;;;;;31.17;14.05;;;;;;;1.29;62.14;93205.13;5013718;28;20055;-92
2022/03/11 01:50:12;;;;;;;32.47;14.10;;;;;;;1.24;62.57;93197.22;5000726;28;20061;-92
2022/03/11 01:53:15;;;;;;;31.45;13.43;;;;;;;1.44;62.20;93215.91;4994988;28;20041;-92
2022/03/11 01:56:01;;;;;;;35.15;13.77;;;;;;;1.43;62.69;93206.56;5022070;28;20562;-91
2022/03/11 01:59:21;;;;;;;29.45;13.52;;;;;;;1.71;62.92;93246.59;4998995;28;20073;-92
2022/03/11 02:01:53;;;;;;;32.42;14.25;;;;;;;1.91;63.12;93268.88;5002444;28;20153;-90
2022/03/11 02:04:37;;;;;;;;;;;;;;;;;;;;;
2022/03/11 02:07:33;;;;;;;;;;;;;;;;;;;;;
2022/03/11 02:10:20;;;;;;;30.35;14.50;;;;;;;1.73;63.52;93243.81;5031241;28;20045;-90
2022/03/11 02:12:56;;;;;;;31.73;14.50;;;;;;;1.82;63.81;93247.72;5001804;28;20038;-90
2022/03/11 02:16:02;;;;;;;;;;;;;;;;;;;;;
2022/03/11 02:18:57;;;;;;;30.20;13.07;;;;;;;1.96;63.40;93264.66;4983341;28;20053;-90
2022/03/11 02:21:52;;;;;;;35.10;14.15;;;;;;;1.96;62.98;93264.66;4995375;28;20042;-91
2022/03/11 02:24:31;;;;;;;;;;;;;;;;;;;;;
2022/03/11 02:27:46;;;;;;;32.92;14.05;;;;;;;1.92;63.32;93253.19;5032940;28;20040;-91
2022/03/11 02:30:57;;;;;;;;;;;;;;;;;;;;;
2022/03/11 02:33:40;;;;;;;30.38;13.45;;;;;;;1.81;63.65;93252.09;5033178;28;20025;-91
2022/03/11 02:36:28;;;;;;;29.88;13.93;;;;;;;2.07;63.93;93297.53;5033540;28;20065;-91
2022/03/11 02:39:26;;;;;;;;;;;;;;;;;;;;;
2022/03/11 02:42:03;;;;;;;;;;;;;;;;;;;;;
2022/03/11 02:44:53;;;;;;;32.40;14.23;;;;;;;2.02;64.61;93287.03;4997522;28;20036;-91
2022/03/11 02:47:31;;;;;;;34.55;15.00;;;;;;;1.88;64.81;93265.72;4996848;28;20061;-91
2022/03/11 02:50:24;;;;;;;31.10;14.45;;;;;;;1.71;64.47;93244.03;5008500;28;20505;-91
2022/03/11 02:53:26;;;;;;;31.77;14.02;;;;;;;1.66;64.67;93223.25;5034360;28;20037;-90
2022/03/11 02:56:14;;;;;;;27.20;13.07;;;;;;;1.66;65.30;93228.41;5017597;28;20430;-90
2022/03/11 02:59:00;;;;;;;30.42;14.20;;;;;;;1.66;65.54;93225.81;5000140;28;20384;-90
2022/03/11 03:02:12;;;;;;;31.98;14.18;;;;;;;1.62;65.44;93222.88;4997560;28;20053;-90
2022/03/11 03:05:01;;;;;;;31.10;13.95;;;;;;;1.84;64.83;93243.91;5023464;28;20045;-90
2022/03/11 03:07:41;;;;;;;31.30;14.20;;;;;;;1.97;65.50;93265.44;4985864;28;20087;-90
2022/03/11 03:10:28;;;;;;;37.83;14.93;;;;;;;2.00;65.37;93265.00;4988055;28;20049;-91
2022/03/11 03:13:24;;;;;;;;;;;;;;;;;;;;;
2022/03/11 03:16:13;;;;;;;;;;;;;;;;;;;;;
2022/03/11 03:19:12;;;;;;;36.00;14.13;;;;;;;1.88;65.23;93223.63;5032345;28;20029;-90
2022/03/11 03:22:09;;;;;;;;;;;;;;;;;;;;;
2022/03/11 03:25:07;;;;;;;;;;;;;;;;;;;;;
2022/03/11 03:28:04;;;;;;;31.63;14.18;;;;;;;2.14;64.67;93238.06;5023182;28;20394;-91
2022/03/11 03:31:11;;;;;;;31.80;15.23;;;;;;;2.16;64.51;93232.66;5016165;28;20148;-89
2022/03/11 03:33:47;;;;;;;35.53;14.50;;;;;;;2.12;64.03;93219.41;5007631;28;20038;-91
2022/03/11 03:36:26;;;;;;;31.85;15.68;;;;;;;2.63;63.63;93287.19;5007994;28;20033;-91
2022/03/11 03:39:26;;;;;;;;;;;;;;;;;;;;;
2022/03/11 03:42:31;;;;;;;;;;;;;;;;;;;;;
2022/03/11 03:45:16;;;;;;;31.88;14.40;;;;;;;2.43;63.22;93220.22;5006200;28;20045;-90
2022/03/11 03:48:26;;;;;;;;;;;;;;;;;;;;;
2022/03/11 03:51:39;;;;;;;30.55;14.02;;;;;;;2.42;62.85;93223.81;5005910;28;20394;-91
2022/03/11 03:54:30;;;;;;;;;;;;;;;;;;;;;
2022/03/11 03:57:13;;;;;;;30.60;14.18;;;;;;;2.51;62.34;93230.28;4997575;28;20066;-90
2022/03/11 04:00:07;;;;;;;31.60;15.23;;;;;;;2.74;62.09;93272.75;5035571;28;20056;-91
2022/03/11 04:06:28;;;;;;;33.13;15.50;;;;;;;2.39;61.46;93213.94;5009840;28;20045;-90
2022/03/11 04:09:23;;;;;;;32.72;13.82;;;;;;;2.39;61.03;93219.88;4998869;28;20048;-91
2022/03/11 04:12:06;;;;;;;;;;;;;;;;;;;;;
2022/03/11 04:15:13;;;;;;;;;;;;;;;;;;;;;
2022/03/11 04:18:07;;;;;;;;;;;;;;;;;;;;;
2022/03/11 04:20:59;;;;;;;32.65;14.98;;;;;;;2.39;59.82;93234.59;5009012;28;20128;-90
2022/03/11 04:23:56;;;;;;;;;;;;;;;;;;;;;
2022/03/11 04:27:00;;;;;;;;;;;;;;;;;;;;;
2022/03/11 04:30:03;;;;;;;32.25;14.43;;;;;;;2.22;59.33;93226.63;5010555;28;20045;-90
2022/03/11 04:32:52;;;;;;;34.97;14.32;;;;;;;2.23;59.60;93236.75;4990673;28;20073;-90
2022/03/11 04:35:40;;;;;;;33.50;14.52;;;;;;;2.16;60.11;93236.06;4956875;28;20038;-90
2022/03/11 04:38:16;;;;;;;29.48;14.02;;;;;;;2.16;60.91;93235.25;4960446;28;20042;-90
2022/03/11 04:40:49;;;;;;;35.47;15.27;;;;;;;2.06;61.48;93235.75;4990632;28;20057;-90
2022/03/11 04:43:37;;;;;;;;;;;;;;;;;;;;;
2022/03/11 04:46:32;;;;;;;;;;;;;;;;;;;;;
2022/03/11 04:49:18;;;;;;;32.42;14.10;;;;;;;1.97;60.95;93234.47;4973389;28;20045;-90
2022/03/11 04:52:09;;;;;;;;;;;;;;;;;;;;;
2022/03/11 04:54:38;;;;;;;31.58;14.73;;;;;;;1.87;60.82;93222.84;4997546;28;20376;-90
2022/03/11 04:57:39;;;;;;;34.80;15.05;;;;;;;1.95;60.41;93231.31;5014130;28;20038;-90
2022/03/11 05:00:09;;;;;;;35.25;13.93;;;;;;;2.10;60.73;93261.94;4997865;28;20140;-91
2022/03/11 05:03:02;;;;;;;33.63;14.75;;;;;;;1.94;61.26;93247.81;4997737;28;20449;-90
2022/03/11 05:06:02;;;;;;;30.13;14.10;;;;;;;2.17;60.82;93284.13;4992841;28;20038;-89
2022/03/11 05:09:02;;;;;;;;;;;;;;;;;;;;;
2022/03/11 05:11:38;;;;;;;36.78;14.70;;;;;;;2.02;60.23;93255.25;5008595;28;20137;-90
2022/03/11 05:14:52;;;;;;;28.42;13.57;;;;;;;1.91;59.88;93249.00;5019511;28;20514;-90
2022/03/11 05:17:37;;;;;;;34.53;14.18;;;;;;;1.98;59.99;93264.44;5000932;28;20144;-91
2022/03/11 05:20:26;;;;;;;28.67;13.80;;;;;;;2.03;59.63;93277.50;5015036;28;20038;-90
2022/03/11 05:23:20;;;;;;;31.40;13.85;;;;;;;1.81;59.67;93246.13;5002088;28;20556;-90
2022/03/11 05:25:52;;;;;;;30.48;13.38;;;;;;;1.82;58.87;93245.94;5015494;28;20048;-89
2022/03/11 05:29:09;;;;;;;27.45;12.50;;;;;;;2.14;57.93;93300.06;5008526;28;20073;-90
2022/03/11 05:31:58;;;;;;;32.90;13.52;;;;;;;1.95;58.08;93259.72;4988221;28;20049;-91
2022/03/11 05:34:49;;;;;;;;;;;;;;;;;;;;;
2022/03/11 05:37:28;;;;;;;31.52;12.63;;;;;;;1.95;57.18;93270.03;5004347;28;20399;-90
2022/03/11 05:40:13;;;;;;;25.60;12.27;;;;;;;1.79;56.56;93246.34;5015052;28;20033;-90
2022/03/11 05:43:16;;;;;;;28.58;12.52;;;;;;;2.16;56.65;93316.13;4983469;28;20112;-91
2022/03/11 05:45:47;;;;;;;27.23;12.90;;;;;;;1.80;56.52;93263.44;4998348;28;20042;-90
2022/03/11 05:48:40;;;;;;;30.92;12.85;;;;;;;1.95;55.65;93281.16;5002097;28;20045;-90
2022/03/11 05:55:08;;;;;;;24.73;10.80;;;;;;;1.70;54.65;93260.53;5010915;28;20058;-90
2022/03/11 06:00:23;;;;;;;28.13;12.77;;;;;;;1.75;53.71;93265.84;4990208;28;20048;-86
2022/03/11 06:02:54;;;;;;;25.08;11.55;;;;;;;2.29;53.25;93339.22;5020496;28;20495;-85
2022/03/11 06:05:19;;;;;;;23.83;11.85;;;;;;;2.21;53.07;93307.75;4995522;28;20044;-86
2022/03/11 06:07:48;;;;;;;25.98;11.45;;;;;;;2.32;52.55;93290.72;4997128;28;20049;-85
2022/03/11 06:10:16;;;;;;;24.67;10.60;;;;;;;2.71;51.90;93336.03;5001537;28;20053;-86
2022/03/11 06:12:47;;;;;;;24.58;10.65;;;;;;;2.77;51.05;93321.41;4998865;28;20407;-85
2022/03/11 06:15:13;;;;;;;24.33;10.45;;;;;;;2.73;50.80;93307.38;4996035;28;20049;-86
2022/03/11 06:17:42;;;;;;;24.30;11.32;;;;;;;2.83;50.63;93323.16;5013498;28;20034;-85
2022/03/11 06:20:12;;;;;;;24.02;10.80;;;;;;;2.66;50.74;93310.03;5023351;28;20034;-86
2022/03/11 06:22:51;;;;;;;22.45;10.43;;;;;;;2.62;50.79;93325.19;5013070;28;20038;-87
2022/03/11 06:25:27;;;;;;;27.77;10.88;;;;;;;2.41;51.40;93299.75;5048518;28;20068;-86
2022/03/11 06:27:52;;;;;;;23.30;10.60;;;;;;;2.67;51.54;93346.00;5034312;28;20033;-85
2022/03/11 06:30:23;;;;;;;25.10;10.38;;;;;;;2.35;51.90;93301.41;4995763;28;20049;-86
2022/03/11 06:32:51;;;;;;;20.42;9.57;;;;;;;2.29;51.83;93297.09;5012864;28;20038;-86
2022/03/11 06:35:19;;;;;;;23.73;10.10;;;;;;;2.29;52.05;93303.06;4996443;28;20096;-86
2022/03/11 06:37:52;;;;;;;20.80;9.20;;;;;;;2.70;52.95;93361.09;4979796;28;20038;-88
2022/03/11 06:40:26;;;;;;;;;;;;;;;2.74;53.34;93374.34;5011099;28;20049;-86
2022/03/11 06:42:57;;;;;;;18.85;8.38;;;;;;;2.51;53.90;93346.56;5015104;28;19913;-86
2022/03/11 06:45:30;;;;;;;20.50;9.13;;;;;;;2.28;54.21;93311.81;4998107;28;20042;-86
2022/03/11 06:47:58;;;;;;;17.52;7.70;;;;;;;2.52;55.83;93348.13;5002616;28;20040;-86
2022/03/11 06:50:28;;;;;;;20.77;9.18;;;;;;;2.44;55.98;93314.84;5026154;28;20037;-85
2022/03/11 06:52:57;;;;;;;19.15;8.63;;;;;;;2.42;56.38;93311.69;5013878;28;20037;-85
2022/03/11 06:55:22;;;;;;;17.88;8.93;;;;;;;2.41;56.47;93326.41;4997984;28;20099;-85
2022/03/11 06:57:59;;;;;;;18.27;9.23;;;;;;;2.48;56.59;93316.78;5013123;28;20041;-85
2022/03/11 07:00:28;;;;;;;17.23;8.98;;;;;;;2.80;56.77;93352.03;5013708;28;20044;-85
2022/03/11 07:03:03;;;;;;;15.70;8.75;;;;;;;2.47;57.21;93304.06;4998025;28;20040;-85
2022/03/11 07:05:29;;;;;;;18.85;9.35;;;;;;;2.73;57.71;93364.25;5014719;28;20096;-86
2022/03/11 07:07:57;;;;;;;16.27;8.02;;;;;;;2.54;57.45;93322.88;5009582;28;20694;-85
2022/03/11 07:10:23;;;;;;;18.20;9.32;;;;;;;2.92;57.34;93365.81;4995884;28;20054;-85
2022/03/11 07:12:49;;;;;;;20.63;8.88;;;;;;;2.71;57.21;93336.03;4998920;28;20040;-88
2022/03/11 07:15:14;;;;;;;19.67;9.32;;;;;;;2.86;57.27;93366.66;4988635;28;20530;-86
2022/03/11 07:17:49;;;;;;;16.98;8.27;;;;;;;2.81;57.63;93335.50;5024800;28;20045;-84
2022/03/11 07:20:14;;;;;;;16.58;8.57;;;;;;;3.31;57.09;93390.41;5026227;28;20149;-85
2022/03/11 07:22:41;;;;;;;20.00;9.32;;;;;;;3.35;56.86;93390.75;4978574;28;20497;-84
2022/03/11 07:25:08;;;;;;;17.00;8.80;;;;;;;3.61;56.80;93391.41;4963623;28;20052;-85
2022/03/11 07:27:34;;;;;;;18.30;8.95;;;;;;;3.75;56.54;93385.81;4978738;28;20046;-86
2022/03/11 07:29:59;;;;;;;17.15;8.80;;;;;;;3.83;55.95;93376.13;5009746;28;20084;-85
2022/03/11 07:32:25;;;;;;;18.70;8.02;;;;;;;3.92;56.36;93388.56;4978719;28;20570;-84
2022/03/11 07:34:50;;;;;;;18.05;9.07;;;;;;;3.62;57.45;93388.59;4961976;28;20045;-87
2022/03/11 07:37:16;;;;;;;20.02;9.27;;;;;;;3.51;58.26;93408.28;4978436;28;20476;-85
2022/03/11 07:39:45;;;;;;;19.33;9.15;;;;;;;3.19;59.21;93383.59;4995259;28;20048;-85
2022/03/11 07:42:11;;;;;;;18.10;8.70;;;;;;;2.98;61.00;93398.56;5012900;28;20120;-85
2022/03/11 07:44:42;;;;;;;16.67;9.32;;;;;;;3.08;60.85;93396.25;4998735;28;20080;-83
2022/03/11 07:47:07;;;;;;;17.73;8.93;;;;;;;3.44;59.92;93406.75;5014716;28;20087;-85
2022/03/11 07:49:34;;;;;;;16.65;8.60;;;;;;;3.57;59.91;93400.63;4998485;28;20041;-84
2022/03/11 07:52:00;;;;;;;18.52;8.73;;;;;;;3.83;59.64;93408.03;5014941;28;20065;-86
2022/03/11 07:54:26;;;;;;;14.90;8.63;;;;;;;3.95;59.91;93413.22;5014483;28;20056;-84
2022/03/11 07:56:52;;;;;;;16.58;9.05;;;;;;;4.06;59.66;93416.84;5031603;28;20442;-88
2022/03/11 07:59:17;;;;;;;17.95;8.98;;;;;;;3.96;59.67;93396.66;5014405;28;20095;-85
2022/03/11 08:01:43;;;;;;;15.80;8.00;;;;;;;3.92;60.27;93417.06;4993249;28;20509;-84
2022/03/11 08:04:10;;;;;;;17.90;7.75;;;;;;;3.77;60.74;93401.13;4978371;28;20463;-84
2022/03/11 08:06:36;;;;;;;14.77;7.65;;;;;;;3.84;61.19;93427.72;4994852;28;20066;-85
2022/03/11 08:09:02;;;;;;;16.85;8.63;;;;;;;3.74;61.32;93424.91;4994695;28;20084;-86
2022/03/11 08:11:27;;;;;;;15.38;8.70;;;;;;;3.67;61.64;93414.63;5012588;28;20057;-85
2022/03/11 08:13:53;;;;;;;16.77;8.10;;;;;;;3.77;61.52;93427.03;4977825;28;20069;-88
2022/03/11 08:16:20;;;;;;;17.48;8.15;;;;;;;3.84;61.87;93432.13;5012146;28;20045;-85
2022/03/11 08:18:45;;;;;;;16.80;8.45;;;;;;;3.80;62.19;93421.41;4994901;28;20057;-85
2022/03/11 08:21:16;;;;;;;16.92;9.00;;;;;;;3.34;63.47;93421.03;4963502;28;20037;-85
2022/03/11 08:23:43;;;;;;;15.82;8.05;;;;;;;3.32;63.66;93406.72;4985300;28;20434;-86
2022/03/11 08:26:10;;;;;;;15.35;7.57;;;;;;;3.66;63.54;93430.38;5013853;28;20025;-87
2022/03/11 08:28:37;;;;;;;12.30;7.03;;;;;;;3.76;63.46;93430.66;4997033;28;20052;-84
2022/03/11 08:31:03;;;;;;;14.40;8.35;;;;;;;3.39;64.23;93422.94;5033578;28;20077;-85
2022/03/11 08:33:30;;;;;;;16.17;7.45;;;;;;;3.61;63.99;93432.84;5029777;28;20037;-84
2022/03/11 08:35:57;;;;;;;13.98;7.03;;;;;;;3.39;65.15;93441.06;4998850;28;20030;-86
2022/03/11 08:38:23;;;;;;;13.40;6.88;;;;;;;3.41;65.11;93439.06;5014081;28;20174;-85
2022/03/11 08:40:49;;;;;;;12.45;7.00;;;;;;;3.39;64.83;93424.75;5014456;28;20069;-85
2022/03/11 08:43:14;;;;;;;15.07;7.38;;;;;;;3.55;66.07;93437.88;4981557;28;20034;-85
2022/03/11 08:45:40;;;;;;;14.77;6.57;;;;;;;3.67;65.14;93437.13;5012587;28;20041;-85
2022/03/11 08:48:07;;;;;;;15.25;7.25;;;;;;;3.37;65.94;93409.44;5008391;28;20056;-84
2022/03/11 08:50:33;;;;;;;13.60;6.90;;;;;;;3.60;65.75;93436.44;4992852;28;20034;-85
2022/03/11 08:52:59;;;;;;;13.93;6.82;;;;;;;3.47;66.92;93430.41;4980446;28;20043;-84
2022/03/11 08:55:25;;;;;;;12.73;7.00;;;;;;;3.56;65.51;93438.69;4996732;28;20480;-84
2022/03/11 08:57:51;;;;;;;10.38;6.72;;;;;;;2.99;67.28;93426.00;4997908;28;20053;-84
2022/03/11 09:00:22;;;;;;;13.10;6.70;;;;;;;2.97;67.70;93425.44;4982361;28;20048;-85
2022/03/11 09:02:48;;;;;;;17.92;6.43;;;;;;;3.36;67.32;93432.97;5014268;28;20042;-86
2022/03/11 09:05:17;;;;;;;14.20;7.07;;;;;;;3.62;66.80;93426.63;4997502;28;20038;-85
2022/03/11 09:07:43;;;;;;;15.32;6.82;;;;;;;3.62;67.59;93437.00;5011471;28;20112;-84
2022/03/11 09:10:10;;;;;;;11.98;4.93;;;;;;;3.27;69.79;93430.66;4996911;28;20105;-84
2022/03/11 09:12:37;;;;;;;16.23;7.50;;;;;;;3.36;70.11;93433.75;4981460;28;20034;-85
2022/03/11 09:15:04;;;;;;;11.48;6.95;;;;;;;3.45;68.08;93416.13;4965459;28;20042;-86
2022/03/11 09:17:30;;;;;;;12.73;6.00;;;;;;;3.41;67.33;93433.88;5014580;28;20100;-85
2022/03/11 09:19:56;;;;;;;12.43;6.53;;;;;;;3.51;67.34;93428.97;5015416;28;20046;-86
2022/03/11 09:22:22;;;;;;;8.80;5.05;;;;;;;3.59;67.62;93437.44;5000009;28;20496;-86
2022/03/11 09:24:48;;;;;;;12.27;6.45;;;;;;;2.82;70.01;93420.63;5000223;28;20041;-86
2022/03/11 09:27:13;;;;;;;12.30;7.38;;;;;;;3.12;68.86;93418.09;4982427;28;20069;-84
2022/03/11 09:29:40;;;;;;;11.73;5.10;;;;;;;3.11;69.08;93439.81;4989236;28;20049;-85
2022/03/11 09:32:07;;;;;;;14.30;7.00;;;;;;;3.20;68.97;93436.91;5016271;28;20083;-84
2022/03/11 09:34:33;;;;;;;12.95;6.93;;;;;;;3.17;68.84;93425.19;5001649;28;20041;-86
2022/03/11 09:36:59;;;;;;;13.50;6.45;;;;;;;3.33;68.77;93436.75;5029730;28;20021;-85
2022/03/11 09:39:25;;;;;;;10.13;6.35;;;;;;;3.30;68.61;93432.03;5021119;28;20043;-85
2022/03/11 09:41:51;;;;;;;11.30;6.28;;;;;;;3.42;69.21;93438.03;5020171;28;20036;-86
2022/03/11 09:44:18;;;;;;;12.20;7.03;;;;;;;3.58;68.77;93438.44;5003448;28;20072;-85
2022/03/11 09:46:44;;;;;;;12.48;7.13;;;;;;;3.60;67.89;93421.66;5031229;28;20038;-86
2022/03/11 09:49:17;;;;;;;13.48;6.97;;;;;;;3.70;68.03;93426.34;5015474;28;20042;-85
2022/03/11 09:51:45;;;;;;;13.40;7.55;;;;;;;3.76;67.62;93417.69;5013790;28;20120;-86
2022/03/11 09:54:12;;;;;;;14.15;7.93;;;;;;;3.74;67.39;93428.28;4987250;28;20391;-86
2022/03/11 09:56:40;;;;;;;13.10;7.88;;;;;;;3.87;67.53;93432.47;5034089;28;20038;-88
2022/03/11 09:59:07;;;;;;;16.52;7.53;;;;;;;3.89;67.74;93424.47;5014659;28;20407;-86
2022/03/11 10:01:33;;;;;;;15.68;7.55;;;;;;;4.03;67.08;93430.25;4992215;28;20026;-89
2022/03/11 10:03:59;;;;;;;13.52;7.70;;;;;;;4.08;67.11;93423.41;4980865;28;20503;-87
2022/03/11 10:06:46;;;;;;;14.90;7.90;;;;;;;4.09;66.88;93424.19;4962819;28;20045;-86
2022/03/11 10:09:17;;;;;;;16.15;7.35;;;;;;;4.12;65.96;93426.31;4995025;28;20046;-89
2022/03/11 10:11:49;;;;;;;17.83;9.20;;;;;;;4.03;66.22;93406.91;5002818;28;20058;-86
2022/03/11 10:14:16;;;;;;;18.45;8.52;;;;;;;4.20;66.33;93422.63;5032216;28;20041;-85
2022/03/11 10:16:44;;;;;;;15.48;9.43;;;;;;;4.13;65.76;93399.41;4998733;28;20514;-86
2022/03/11 10:19:13;;;;;;;16.55;8.93;;;;;;;4.17;65.58;93405.72;5032365;28;20509;-85
2022/03/11 10:21:42;;;;;;;13.13;7.70;;;;;;;4.12;65.76;93393.44;5012800;28;20033;-86
2022/03/11 10:24:10;;;;;;;12.40;7.07;;;;;;;4.35;64.68;93408.22;5032113;28;20049;-86
2022/03/11 10:26:43;;;;;;;12.02;7.60;;;;;;;4.35;64.89;93415.19;5031905;28;20025;-87
2022/03/11 10:29:25;;;;;;;15.40;8.23;;;;;;;4.19;65.16;93403.69;5031756;28;20045;-86
2022/03/11 10:31:55;;;;;;;15.68;7.78;;;;;;;4.03;66.10;93399.97;5014060;28;20041;-86
2022/03/11 10:34:24;;;;;;;15.68;8.30;;;;;;;3.84;66.52;93411.41;5031920;28;20033;-85
2022/03/11 10:36:50;;;;;;;14.13;7.93;;;;;;;3.84;66.84;93401.81;4997875;28;20029;-86
2022/03/11 10:39:21;;;;;;;15.80;8.77;;;;;;;3.81;66.92;93391.91;5031942;28;20120;-86
2022/03/11 10:41:49;;;;;;;15.45;8.27;;;;;;;3.65;67.25;93397.72;5032015;28;20061;-86
2022/03/11 10:44:28;;;;;;;14.70;8.65;;;;;;;3.33;67.76;93365.09;4991086;28;20045;-85
2022/03/11 10:47:18;;;;;;;15.15;7.43;;;;;;;3.55;67.41;93399.03;4995108;28;20053;-86
2022/03/11 10:49:51;;;;;;;13.57;7.78;;;;;;;3.52;68.09;93383.16;4977909;28;20073;-85
2022/03/11 10:52:35;;;;;;;17.83;8.75;;;;;;;3.73;67.63;93389.63;5009764;28;20567;-85
2022/03/11 10:55:23;;;;;;;17.00;9.07;;;;;;;3.72;68.38;93399.22;4993770;28;20038;-84
2022/03/11 10:57:52;;;;;;;11.88;7.13;;;;;;;3.74;68.96;93397.19;5010797;28;20033;-85
2022/03/11 11:00:20;;;;;;;15.60;7.68;;;;;;;3.76;68.25;93396.97;4994662;28;20547;-85
2022/03/11 11:02:47;;;;;;;15.10;7.95;;;;;;;3.76;68.27;93376.25;5002803;28;20033;-85
2022/03/11 11:05:13;;;;;;;15.20;8.25;;;;;;;3.61;67.92;93391.41;5006336;28;20083;-84
2022/03/11 11:07:42;;;;;;;11.98;7.35;;;;;;;3.63;68.29;93390.19;4998282;28;20124;-86
2022/03/11 11:10:16;;;;;;;19.25;8.40;;;;;;;3.69;68.37;93383.31;4997271;28;20058;-86
2022/03/11 11:12:42;;;;;;;15.50;8.30;;;;;;;3.50;68.62;93375.59;5013024;28;20029;-85
2022/03/11 11:15:10;;;;;;;17.30;9.13;;;;;;;3.54;68.48;93363.03;4989951;28;20387;-89
2022/03/11 11:17:41;;;;;;;20.55;9.93;;;;;;;3.74;68.43;93367.91;4978930;28;20121;-86
2022/03/11 11:20:23;;;;;;;12.55;7.18;;;;;;;3.81;68.43;93366.00;5006018;28;20115;-85
2022/03/11 11:22:52;;;;;;;19.85;9.63;;;;;;;3.89;67.39;93372.66;5010610;28;20100;-85
2022/03/11 11:25:21;;;;;;;13.90;7.60;;;;;;;4.02;67.22;93363.91;4996076;28;20040;-85
2022/03/11 11:27:47;;;;;;;19.00;9.40;;;;;;;3.92;67.28;93367.84;4995033;28;20028;-85
2022/03/11 11:30:21;;;;;;;13.55;6.85;;;;;;;3.92;67.49;93367.84;5000872;28;20578;-85
2022/03/11 11:32:55;;;;;;;17.10;7.90;;;;;;;3.64;68.44;93378.00;5014074;28;20029;-85
2022/03/11 11:35:35;;;;;;;10.73;6.38;;;;;;;3.01;71.71;93372.25;4977899;28;20559;-85
2022/03/11 11:38:24;;;;;;;13.02;7.45;;;;;;;3.33;71.01;93379.81;5017761;28;20099;-85
2022/03/11 11:40:50;;;;;;;15.27;8.27;;;;;;;3.52;70.29;93376.19;4997673;28;20072;-85
2022/03/11 11:43:28;;;;;;;14.35;6.70;;;;;;;3.23;70.23;93377.75;4995378;28;20432;-84
2022/03/11 11:46:02;;;;;;;15.82;7.80;;;;;;;3.44;69.71;93371.31;5030000;28;20085;-85
2022/03/11 11:48:45;;;;;;;16.10;8.27;;;;;;;3.42;69.56;93367.34;5013643;28;20034;-85
2022/03/11 11:51:29;;;;;;;12.00;7.47;;;;;;;3.80;68.85;93361.03;5031040;28;20044;-85
2022/03/11 11:53:57;;;;;;;17.27;8.68;;;;;;;4.01;68.12;93359.72;5013993;28;20036;-85
2022/03/11 11:56:27;;;;;;;12.90;7.57;;;;;;;3.92;67.83;93360.06;5009339;28;20018;-85
2022/03/11 11:58:56;;;;;;;13.93;7.75;;;;;;;3.71;68.64;93355.41;5007496;28;20056;-86
2022/03/11 12:01:44;;;;;;;16.67;9.02;;;;;;;4.02;67.57;93350.94;4996927;28;20077;-86
2022/03/11 12:04:28;;;;;;;24.63;11.88;;;;;;;4.11;66.86;93352.97;4994046;28;20030;-86
2022/03/11 12:07:01;;;;;;;15.32;8.25;;;;;;;4.18;66.13;93355.44;5012965;28;20053;-85
2022/03/11 12:09:51;;;;;;;;;;;;;;;4.16;65.87;93357.47;4978236;28;20043;-85
2022/03/11 12:12:24;;;;;;;15.80;8.15;;;;;;;3.96;66.50;93350.03;4998060;28;20000;-85
2022/03/11 12:15:05;;;;;;;18.35;8.10;;;;;;;3.53;67.91;93353.66;5013797;28;20038;-85
2022/03/11 12:17:51;;;;;;;17.05;8.43;;;;;;;3.27;67.61;93328.97;5011364;28;20124;-86
2022/03/11 12:20:21;;;;;;;13.85;8.32;;;;;;;3.68;67.46;93353.25;4994224;28;20045;-87
2022/03/11 12:23:13;;;;;;;17.88;9.27;;;;;;;3.63;67.86;93347.97;5010584;28;20041;-85
2022/03/11 12:25:42;;;;;;;20.60;8.70;;;;;;;3.81;67.06;93350.47;4990944;28;20057;-86
2022/03/11 12:28:13;;;;;;;15.52;8.57;;;;;;;3.68;66.77;93340.31;5012392;28;20034;-86
2022/03/11 12:30:47;;;;;;;12.65;7.82;;;;;;;3.91;66.03;93347.31;5000606;28;20570;-86
2022/03/11 12:33:33;;;;;;;15.53;8.70;;;;;;;4.00;66.09;93343.38;5014535;28;20048;-85
2022/03/11 12:36:00;;;;;;;14.52;8.50;;;;;;;4.02;66.25;93338.00;4978100;28;20133;-85
2022/03/11 12:38:34;;;;;;;15.48;8.32;;;;;;;4.05;65.70;93335.72;4998525;28;20048;-85
2022/03/11 12:41:10;;;;;;;14.10;8.77;;;;;;;4.04;65.42;93323.78;5010785;28;20052;-85
2022/03/11 12:43:40;;;;;;;18.27;9.75;;;;;;;4.05;65.21;93314.22;4978237;28;20034;-85
2022/03/11 12:46:30;;;;;;;15.35;9.57;;;;;;;4.04;64.88;93274.56;4993486;28;20032;-86
2022/03/11 12:48:56;;;;;;;21.15;9.95;;;;;;;4.02;64.75;93262.84;5007887;28;20403;-86
2022/03/11 12:51:25;;;;;;;15.60;9.13;;;;;;;4.01;64.16;93269.03;4984250;28;20483;-87
2022/03/11 12:53:57;;;;;;;12.98;8.50;;;;;;;4.47;64.20;93294.13;4993166;28;20121;-87
2022/03/11 12:56:24;;;;;;;18.38;8.95;;;;;;;4.74;63.59;93291.81;4994137;28;20048;-85
2022/03/11 12:58:56;;;;;;;18.45;8.80;;;;;;;4.84;62.22;93280.84;4996414;28;20022;-88
2022/03/11 13:01:25;;;;;;;15.98;9.25;;;;;;;4.67;62.06;93238.50;4991408;28;20037;-85
2022/03/11 13:03:53;;;;;;;15.55;8.82;;;;;;;5.11;61.91;93286.28;5014196;28;20034;-86
2022/03/11 13:06:22;;;;;;;13.68;8.02;;;;;;;5.02;61.22;93277.25;4998541;28;20044;-86
2022/03/11 13:08:49;;;;;;;15.75;8.77;;;;;;;5.01;60.91;93275.69;4993025;28;20133;-86
2022/03/11 13:11:17;;;;;;;15.50;9.15;;;;;;;4.44;61.95;93249.75;5022049;28;20063;-87
2022/03/11 13:13:46;;;;;;;17.42;8.93;;;;;;;4.22;62.34;93263.28;4979197;28;20535;-85
2022/03/11 13:16:12;;;;;;;14.05;8.00;;;;;;;4.74;60.63;93267.69;4996872;28;20057;-85
2022/03/11 13:18:41;;;;;;;17.65;9.15;;;;;;;4.43;63.32;93263.69;4980422;28;20068;-85
2022/03/11 13:21:08;;;;;;;16.25;9.80;;;;;;;4.54;62.75;93276.63;5007597;28;20026;-86
2022/03/11 13:23:45;;;;;;;18.55;9.52;;;;;;;4.29;63.22;93247.63;4987701;28;20038;-86
2022/03/11 13:26:20;;;;;;;23.30;10.90;;;;;;;4.13;62.84;93228.38;5001922;28;20084;-86
2022/03/11 13:28:49;;;;;;;15.48;9.20;;;;;;;3.86;64.42;93266.91;4988660;28;20557;-85
2022/03/11 13:31:21;;;;;;;17.38;9.63;;;;;;;4.05;65.18;93307.22;5015021;28;20124;-86
2022/03/11 13:33:49;;;;;;;18.20;9.25;;;;;;;3.29;66.27;93231.19;5014334;28;20045;-85